createdAt,value
2022-11-18T00:01:14.613Z,4.10
2022-11-18T00:03:43.610Z,3.65
2022-11-18T00:06:16.772Z,4.25
2022-11-18T00:08:44.025Z,4.30
2022-11-18T00:11:13.180Z,4.07
2022-11-18T00:13:58.354Z,4.05
2022-11-18T00:18:51.785Z,4.35
2022-11-18T00:21:18.510Z,4.25
2022-11-18T00:23:45.107Z,4.82
2022-11-18T00:26:14.005Z,4.85
2022-11-18T00:28:41.737Z,5.45
2022-11-18T00:31:11.575Z,5.10
2022-11-18T00:33:38.390Z,5.75
2022-11-18T00:36:07.768Z,4.15
2022-11-18T00:38:34.520Z,4.00
2022-11-18T00:41:19.031Z,4.60
2022-11-18T00:43:45.896Z,4.30
2022-11-18T00:46:12.650Z,4.15
2022-11-18T00:48:40.232Z,3.60
2022-11-18T00:51:11.058Z,4.03
2022-11-18T00:53:37.685Z,3.65
2022-11-18T00:56:04.630Z,3.70
2022-11-18T00:58:31.446Z,3.70
2022-11-18T01:00:58.276Z,3.10
2022-11-18T01:03:25.603Z,3.70
2022-11-18T01:05:52.280Z,3.30
2022-11-18T01:08:19.464Z,3.50
2022-11-18T01:10:47.868Z,3.83
2022-11-18T01:13:20.702Z,3.08
2022-11-18T01:15:47.286Z,3.50
2022-11-18T01:18:13.984Z,2.97
2022-11-18T01:20:40.647Z,2.83
2022-11-18T01:23:07.418Z,3.25
2022-11-18T01:25:37.128Z,2.75
2022-11-18T01:28:04.567Z,3.08
2022-11-18T01:30:34.623Z,2.95
2022-11-18T01:33:02.163Z,3.22
2022-11-18T01:35:28.791Z,2.92
2022-11-18T01:37:55.432Z,2.97
2022-11-18T01:40:22.063Z,3.83
2022-11-18T01:42:48.739Z,3.20
2022-11-18T01:45:20.003Z,3.53
2022-11-18T01:47:53.023Z,3.92
2022-11-18T01:50:21.824Z,4.28
2022-11-18T01:52:51.962Z,4.35
2022-11-18T01:55:26.867Z,4.25
2022-11-18T01:58:01.300Z,4.03
2022-11-18T02:00:27.943Z,4.00
2022-11-18T02:02:54.931Z,3.70
2022-11-18T02:05:22.394Z,4.15
2022-11-18T02:07:49.817Z,4.95
2022-11-18T02:10:24.997Z,3.83
2022-11-18T02:12:53.288Z,4.60
2022-11-18T02:15:32.736Z,3.85
2022-11-18T02:18:23.597Z,4.10
2022-11-18T02:20:55.717Z,4.05
2022-11-18T02:24:07.007Z,4.00
2022-11-18T02:26:50.806Z,4.07
2022-11-18T02:29:25.056Z,3.03
2022-11-18T02:31:56.311Z,3.35
2022-11-18T02:34:48.384Z,3.70
2022-11-18T02:37:22.327Z,3.53
2022-11-18T02:40:00.264Z,3.10
2022-11-18T02:42:29.606Z,3.28
2022-11-18T02:45:02.365Z,3.10
2022-11-18T02:47:32.720Z,3.40
2022-11-18T02:50:04.607Z,3.17
2022-11-18T02:52:33.328Z,3.50
2022-11-18T02:55:01.371Z,2.97
2022-11-18T02:57:30.734Z,3.40
2022-11-18T02:59:57.375Z,3.20
2022-11-18T03:02:24.002Z,3.30
2022-11-18T03:04:56.131Z,3.67
2022-11-18T03:07:27.991Z,3.05
2022-11-18T03:09:56.594Z,2.78
2022-11-18T03:12:47.686Z,2.83
2022-11-18T03:15:23.284Z,3.17
2022-11-18T03:17:55.916Z,3.45
2022-11-18T03:21:02.646Z,3.55
2022-11-18T03:23:38.671Z,3.85
2022-11-18T03:26:17.941Z,2.95
2022-11-18T03:29:04.283Z,3.03
2022-11-18T03:31:36.293Z,3.13
2022-11-18T03:34:07.492Z,3.17
2022-11-18T03:36:40.022Z,3.65
2022-11-18T03:41:38.698Z,3.63
2022-11-18T03:44:11.614Z,3.25
2022-11-18T03:46:47.428Z,3.08
2022-11-18T03:49:24.488Z,3.08
2022-11-18T03:51:56.811Z,2.95
2022-11-18T03:54:27.325Z,3.28
2022-11-18T03:57:21.417Z,3.03
2022-11-18T04:00:09.725Z,3.80
2022-11-18T04:02:37.619Z,4.00
2022-11-18T04:05:08.177Z,3.30
2022-11-18T04:07:50.418Z,3.22
2022-11-18T04:10:20.039Z,2.88
2022-11-18T04:13:10.431Z,3.60
2022-11-18T04:15:39.052Z,3.30
2022-11-18T04:18:06.006Z,3.58
2022-11-18T04:20:33.753Z,3.83
2022-11-18T04:23:01.094Z,5.45
2022-11-18T04:25:27.736Z,4.55
2022-11-18T04:27:54.434Z,4.22
2022-11-18T04:30:21.566Z,3.33
2022-11-18T04:32:48.238Z,2.95
2022-11-18T04:35:15.648Z,3.50
2022-11-18T04:37:42.399Z,4.05
2022-11-18T04:40:09.912Z,3.90
2022-11-18T04:42:36.820Z,4.20
2022-11-18T04:45:04.540Z,4.45
2022-11-18T04:47:31.134Z,4.45
2022-11-18T04:49:57.747Z,4.40
2022-11-18T04:52:24.475Z,3.85
2022-11-18T04:54:51.059Z,4.70
2022-11-18T04:57:17.738Z,4.10
2022-11-18T04:59:44.366Z,3.92
2022-11-18T05:02:11.047Z,3.80
2022-11-18T05:04:37.648Z,4.03
2022-11-18T05:07:05.342Z,4.80
2022-11-18T05:09:32.571Z,5.07
2022-11-18T05:12:18.775Z,4.03
2022-11-18T05:14:50.091Z,4.88
2022-11-18T05:17:17.752Z,5.43
2022-11-18T05:19:44.479Z,4.60
2022-11-18T05:22:11.093Z,4.43
2022-11-18T05:24:37.744Z,5.03
2022-11-18T05:27:04.409Z,4.30
2022-11-18T05:29:31.151Z,4.50
2022-11-18T05:31:57.753Z,5.18
2022-11-18T05:34:24.632Z,4.70
2022-11-18T05:36:51.273Z,5.10
2022-11-18T05:39:19.129Z,5.60
2022-11-18T05:42:04.684Z,5.32
2022-11-18T05:44:31.298Z,4.55
2022-11-18T05:46:57.973Z,5.38
2022-11-18T05:49:24.700Z,4.80
2022-11-18T05:51:51.330Z,4.50
2022-11-18T05:54:20.838Z,5.53
2022-11-18T05:56:47.688Z,5.20
2022-11-18T05:59:14.975Z,5.85
2022-11-18T06:01:57.338Z,5.00
2022-11-18T06:04:36.478Z,4.75
2022-11-18T06:07:28.313Z,4.82
2022-11-18T06:10:04.775Z,5.13
2022-11-18T06:12:35.849Z,6.05
2022-11-18T06:15:10.448Z,5.57
2022-11-18T06:18:18.122Z,5.10
2022-11-18T06:20:45.411Z,5.40
2022-11-18T06:23:13.255Z,6.40
2022-11-18T06:25:40.548Z,7.18
2022-11-18T06:28:10.117Z,6.20
2022-11-18T06:30:36.796Z,5.95
2022-11-18T06:33:03.516Z,5.22
2022-11-18T06:35:30.141Z,5.70
2022-11-18T06:37:57.161Z,5.28
2022-11-18T06:40:23.760Z,4.60
2022-11-18T06:43:08.958Z,5.18
2022-11-18T06:45:35.651Z,5.43
2022-11-18T06:48:02.267Z,5.30
2022-11-18T06:50:29.784Z,6.13
2022-11-18T06:53:00.161Z,5.95
2022-11-18T06:55:26.855Z,5.57
2022-11-18T06:57:56.673Z,5.15
2022-11-18T07:00:23.445Z,5.60
2022-11-18T07:02:50.079Z,5.72
2022-11-18T07:05:16.853Z,5.80
2022-11-18T07:07:43.497Z,6.45
2022-11-18T07:10:10.399Z,5.40
2022-11-18T07:12:37.044Z,5.70
2022-11-18T07:15:03.906Z,5.18
2022-11-18T07:17:31.187Z,6.13
2022-11-18T07:19:58.013Z,6.47
2022-11-18T07:22:24.651Z,6.30
2022-11-18T07:24:51.289Z,6.07
2022-11-18T07:27:17.902Z,6.38
2022-11-18T07:29:44.534Z,6.38
2022-11-18T07:32:11.155Z,7.47
2022-11-18T07:34:37.941Z,8.00
2022-11-18T07:37:04.585Z,7.80
2022-11-18T07:39:31.288Z,6.43
2022-11-18T07:41:57.933Z,8.02
2022-11-18T07:44:24.514Z,7.88
2022-11-18T07:46:51.149Z,7.30
2022-11-18T07:49:18.054Z,7.25
2022-11-18T07:51:44.865Z,8.55
2022-11-18T07:54:14.154Z,7.65
2022-11-18T07:56:40.774Z,7.72
2022-11-18T07:59:08.181Z,9.48
2022-11-18T08:01:35.432Z,9.05
2022-11-18T08:04:10.706Z,8.70
2022-11-18T08:06:38.026Z,9.63
2022-11-18T08:09:06.099Z,9.00
2022-11-18T08:11:33.289Z,8.88
2022-11-18T08:14:00.067Z,9.98
2022-11-18T08:16:27.301Z,8.30
2022-11-18T08:18:54.345Z,9.40
2022-11-18T08:21:22.939Z,8.32
2022-11-18T08:23:54.870Z,9.60
2022-11-18T08:26:22.382Z,9.63
2022-11-18T08:28:49.309Z,9.95
2022-11-18T08:31:18.911Z,10.00
2022-11-18T08:33:45.870Z,12.32
2022-11-18T08:36:18.196Z,10.30
2022-11-18T08:38:44.886Z,10.80
2022-11-18T08:41:14.615Z,10.98
2022-11-18T08:43:41.383Z,10.82
2022-11-18T08:46:07.964Z,10.32
2022-11-18T08:48:34.633Z,9.73
2022-11-18T08:51:01.714Z,11.25
2022-11-18T08:53:28.567Z,10.55
2022-11-18T08:55:59.276Z,9.48
2022-11-18T08:58:26.764Z,9.90
2022-11-18T09:00:53.565Z,10.63
2022-11-18T09:03:20.393Z,11.02
2022-11-18T09:05:47.637Z,11.15
2022-11-18T09:08:15.313Z,10.00
2022-11-18T09:10:42.410Z,12.18
2022-11-18T09:13:38.680Z,11.48
2022-11-18T09:15:59.064Z,10.30
2022-11-18T09:18:26.419Z,12.10
2022-11-18T09:21:04.791Z,10.50
2022-11-18T09:23:33.715Z,10.38
2022-11-18T09:26:02.344Z,9.57
2022-11-18T09:28:29.846Z,9.65
2022-11-18T09:30:56.762Z,11.38
2022-11-18T09:33:23.957Z,10.43
2022-11-18T09:35:50.788Z,12.15
2022-11-18T09:38:17.468Z,11.70
2022-11-18T09:40:56.395Z,10.95
2022-11-18T09:43:49.639Z,10.57
2022-11-18T09:46:45.637Z,11.43
2022-11-18T09:49:20.296Z,11.70
2022-11-18T09:51:49.896Z,12.10
2022-11-18T09:54:25.689Z,11.27
2022-11-18T09:56:55.066Z,9.32
2022-11-18T09:59:25.253Z,10.95
2022-11-18T10:01:54.800Z,10.63
2022-11-18T10:04:21.924Z,10.82
2022-11-18T10:06:50.176Z,9.82
2022-11-18T10:09:20.083Z,10.63
2022-11-18T10:12:22.807Z,10.52
2022-11-18T10:15:20.576Z,10.02
2022-11-18T10:20:41.550Z,9.70
2022-11-18T10:23:26.288Z,9.77
2022-11-18T10:25:54.366Z,8.65
2022-11-18T10:28:29.271Z,8.30
2022-11-18T10:31:11.458Z,10.13
2022-11-18T10:33:38.899Z,8.82
2022-11-18T10:36:28.133Z,8.48
2022-11-18T10:39:13.257Z,10.63
2022-11-18T10:42:01.943Z,8.45
2022-11-18T10:44:35.642Z,9.13
2022-11-18T10:47:27.316Z,8.55
2022-11-18T10:50:14.906Z,8.55
2022-11-18T10:52:53.113Z,9.32
2022-11-18T10:55:25.281Z,9.00
2022-11-18T10:58:16.450Z,8.65
2022-11-18T11:00:48.300Z,8.60
2022-11-18T11:03:27.258Z,8.57
2022-11-18T11:06:12.795Z,9.00
2022-11-18T11:08:48.679Z,8.23
2022-11-18T11:11:26.346Z,10.13
2022-11-18T11:14:06.327Z,8.25
2022-11-18T11:16:41.676Z,8.85
2022-11-18T11:19:12.109Z,8.52
2022-11-18T11:21:38.831Z,8.50
2022-11-18T11:24:12.655Z,8.80
2022-11-18T11:29:54.122Z,8.02
2022-11-18T11:32:45.380Z,7.82
2022-11-18T11:35:42.291Z,8.05
2022-11-18T11:38:30.922Z,8.40
2022-11-18T11:41:11.332Z,7.90
2022-11-18T11:43:56.620Z,7.40
2022-11-18T11:47:08.309Z,7.35
2022-11-18T11:49:50.823Z,8.15
2022-11-18T11:52:29.701Z,7.20
2022-11-18T11:55:02.506Z,8.35
2022-11-18T11:57:41.024Z,7.32
2022-11-18T12:00:14.844Z,6.72
2022-11-18T12:02:59.764Z,7.47
2022-11-18T12:05:36.060Z,7.18
2022-11-18T12:08:16.742Z,6.80
2022-11-18T12:11:08.043Z,7.68
2022-11-18T12:13:37.806Z,6.60
2022-11-18T12:16:24.685Z,7.25
2022-11-18T12:18:57.767Z,7.07
2022-11-18T12:21:45.971Z,7.47
2022-11-18T12:24:37.951Z,6.85
2022-11-18T12:27:09.560Z,6.70
2022-11-18T12:29:41.641Z,6.55
2022-11-18T12:32:42.173Z,6.45
2022-11-18T12:35:11.803Z,6.80
2022-11-18T12:37:44.018Z,7.35
2022-11-18T12:40:31.588Z,6.95
2022-11-18T12:43:16.840Z,6.95
2022-11-18T12:45:46.234Z,7.15
2022-11-18T12:48:28.188Z,6.55
2022-11-18T12:51:22.201Z,7.07
2022-11-18T12:53:49.736Z,6.00
2022-11-18T12:56:19.776Z,6.43
2022-11-18T12:58:51.914Z,6.53
2022-11-18T13:01:24.837Z,6.18
2022-11-18T13:03:52.391Z,6.30
2022-11-18T13:06:26.787Z,6.07
2022-11-18T13:08:59.776Z,5.97
2022-11-18T13:11:46.938Z,6.95
2022-11-18T13:14:53.683Z,6.38
2022-11-18T13:17:45.682Z,4.93
2022-11-18T13:20:37.263Z,5.88
2022-11-18T13:23:41.187Z,5.43
2022-11-18T13:26:15.621Z,6.18
2022-11-18T13:29:20.583Z,6.32
2022-11-18T13:32:08.564Z,5.50
2022-11-18T13:34:50.768Z,4.63
2022-11-18T13:37:23.830Z,4.55
2022-11-18T13:39:51.114Z,5.07
2022-11-18T13:42:17.906Z,5.13
2022-11-18T13:44:54.721Z,4.10
2022-11-18T13:47:33.376Z,4.72
2022-11-18T13:50:06.331Z,4.90
2022-11-18T13:52:41.779Z,4.70
2022-11-18T13:55:27.288Z,4.55
2022-11-18T13:58:03.379Z,5.13
2022-11-18T14:00:34.258Z,4.60
2022-11-18T14:03:05.180Z,4.38
2022-11-18T14:05:32.093Z,4.75
2022-11-18T14:08:03.693Z,5.45
2022-11-18T14:10:48.454Z,4.60
2022-11-18T14:13:29.838Z,4.10
2022-11-18T14:15:58.681Z,4.70
2022-11-18T14:18:34.778Z,3.67
2022-11-18T14:21:03.309Z,3.50
2022-11-18T14:23:36.163Z,3.60
2022-11-18T14:26:06.998Z,2.90
2022-11-18T14:28:37.012Z,3.42
2022-11-18T14:31:04.034Z,2.92
2022-11-18T14:33:32.525Z,3.40
2022-11-18T14:36:02.242Z,3.40
2022-11-18T14:38:52.040Z,2.60
2022-11-18T14:41:45.136Z,2.55
2022-11-18T14:44:13.409Z,2.50
2022-11-18T14:46:42.484Z,2.35
2022-11-18T14:49:24.121Z,2.58
2022-11-18T14:51:52.300Z,2.30
2022-11-18T14:54:26.514Z,2.38
2022-11-18T14:57:15.058Z,2.40
2022-11-18T14:59:42.143Z,2.58
2022-11-18T15:02:16.995Z,3.08
2022-11-18T15:04:44.066Z,3.05
2022-11-18T15:07:22.795Z,3.40
2022-11-18T15:09:50.630Z,2.95
2022-11-18T15:12:17.344Z,4.10
2022-11-18T15:14:44.024Z,7.75
2022-11-18T15:17:11.885Z,8.60
2022-11-18T15:19:40.616Z,9.65
2022-11-18T15:22:07.591Z,3.67
2022-11-18T15:24:34.293Z,3.53
2022-11-18T15:27:05.052Z,3.30
2022-11-18T15:29:31.899Z,2.58
2022-11-18T15:31:58.596Z,2.72
2022-11-18T15:34:25.641Z,2.78
2022-11-18T15:36:52.373Z,2.28
2022-11-18T15:39:19.095Z,2.70
2022-11-18T15:41:45.790Z,2.60
2022-11-18T15:44:12.761Z,2.40
2022-11-18T15:46:39.942Z,2.22
2022-11-18T15:49:09.460Z,2.63
2022-11-18T15:51:36.784Z,3.00
2022-11-18T15:54:03.477Z,3.25
2022-11-18T15:56:31.568Z,2.53
2022-11-18T15:59:00.907Z,2.65
2022-11-18T16:01:35.904Z,3.05
2022-11-18T16:04:04.212Z,3.05
2022-11-18T16:06:31.014Z,2.88
2022-11-18T16:09:00.299Z,2.92
2022-11-18T16:11:47.953Z,2.60
2022-11-18T16:14:17.409Z,2.65
2022-11-18T16:16:46.120Z,2.47
2022-11-18T16:19:15.870Z,2.65
2022-11-18T16:21:46.886Z,2.63
2022-11-18T16:24:16.914Z,3.25
2022-11-18T16:26:43.889Z,2.67
2022-11-18T16:29:12.415Z,1.95
2022-11-18T16:31:39.885Z,2.17
2022-11-18T16:34:18.894Z,2.00
2022-11-18T16:39:18.745Z,2.40
2022-11-18T16:41:46.311Z,2.20
2022-11-18T16:44:17.185Z,2.42
2022-11-18T16:46:55.864Z,2.67
2022-11-18T16:49:24.912Z,2.38
2022-11-18T16:51:53.875Z,2.30
2022-11-18T16:54:25.856Z,1.65
2022-11-18T16:56:54.441Z,2.30
2022-11-18T16:59:23.490Z,2.00
2022-11-18T17:01:52.662Z,2.33
2022-11-18T17:04:20.881Z,2.08
2022-11-18T17:06:48.101Z,1.80
2022-11-18T17:09:21.049Z,1.50
2022-11-18T17:11:48.681Z,1.40
2022-11-18T17:14:15.483Z,1.55
2022-11-18T17:16:42.719Z,1.52
2022-11-18T17:19:13.979Z,1.63
2022-11-18T17:21:40.908Z,2.38
2022-11-18T17:24:08.299Z,1.90
2022-11-18T17:26:35.105Z,1.77
2022-11-18T17:29:01.787Z,1.45
2022-11-18T17:31:28.447Z,1.80
2022-11-18T17:33:56.123Z,1.38
2022-11-18T17:36:25.136Z,2.38
2022-11-18T17:38:53.937Z,2.17
2022-11-18T17:41:41.768Z,2.38
2022-11-18T17:44:09.971Z,2.13
2022-11-18T17:46:38.516Z,1.60
2022-11-18T17:49:10.380Z,2.10
2022-11-18T17:51:37.051Z,2.17
2022-11-18T17:54:03.867Z,2.03
2022-11-18T17:56:30.685Z,2.00
2022-11-18T17:58:57.579Z,2.15
2022-11-18T18:01:24.479Z,2.38
2022-11-18T18:03:51.281Z,2.35
2022-11-18T18:06:19.866Z,2.50
2022-11-18T18:08:46.500Z,2.67
2022-11-18T18:11:16.453Z,2.60
2022-11-18T18:14:02.329Z,2.00
2022-11-18T18:16:31.399Z,2.40
2022-11-18T18:18:59.270Z,2.00
2022-11-18T18:21:26.668Z,2.05
2022-11-18T18:23:53.366Z,2.20
2022-11-18T18:26:20.053Z,1.90
2022-11-18T18:28:46.908Z,2.20
2022-11-18T18:31:15.715Z,2.20
2022-11-18T18:33:45.678Z,2.47
2022-11-18T18:36:16.152Z,2.42
2022-11-18T18:38:43.885Z,2.00
2022-11-18T18:41:17.413Z,1.98
2022-11-18T18:43:44.524Z,2.03
2022-11-18T18:46:30.482Z,2.10
2022-11-18T18:49:01.017Z,2.33
2022-11-18T18:51:29.196Z,2.55
2022-11-18T18:53:57.345Z,2.85
2022-11-18T18:56:24.269Z,2.85
2022-11-18T18:58:51.086Z,2.13
2022-11-18T19:01:18.893Z,2.35
2022-11-18T19:03:46.025Z,2.88
2022-11-18T19:06:56.934Z,2.60
2022-11-18T19:09:04.292Z,2.90
2022-11-18T19:11:50.151Z,2.67
2022-11-18T19:14:18.869Z,2.42
2022-11-18T19:16:46.258Z,2.30
2022-11-18T19:19:15.368Z,2.28
2022-11-18T19:21:42.251Z,3.13
2022-11-18T19:24:28.425Z,2.75
2022-11-18T19:26:55.692Z,3.97
2022-11-18T19:29:25.568Z,4.03
2022-11-18T19:31:52.520Z,3.50
2022-11-18T19:34:19.719Z,4.18
2022-11-18T19:36:46.801Z,4.63
2022-11-18T19:39:13.484Z,4.20
2022-11-18T19:41:40.240Z,4.30
2022-11-18T19:44:06.873Z,3.97
2022-11-18T19:46:33.892Z,3.22
2022-11-18T19:49:00.722Z,4.35
2022-11-18T19:51:27.342Z,3.92
2022-11-18T19:53:59.471Z,4.03
2022-11-18T19:56:26.729Z,3.97
2022-11-18T19:58:54.846Z,4.28
2022-11-18T20:01:25.281Z,5.43
2022-11-18T20:03:57.657Z,5.15
2022-11-18T20:06:25.616Z,5.10
2022-11-18T20:08:52.540Z,5.30
2022-11-18T20:11:21.355Z,4.50
2022-11-18T20:13:48.348Z,4.97
2022-11-18T20:16:22.262Z,5.75
2022-11-18T20:18:53.389Z,4.70
2022-11-18T20:21:20.880Z,5.47
2022-11-18T20:23:49.944Z,5.53
2022-11-18T20:26:18.643Z,6.10
2022-11-18T20:28:46.953Z,5.47
2022-11-18T20:31:16.359Z,5.63
2022-11-18T20:33:49.228Z,6.18
2022-11-18T20:38:55.482Z,5.50
2022-11-18T20:41:23.949Z,5.88
2022-11-18T20:43:51.163Z,5.53
2022-11-18T20:46:20.977Z,5.50
2022-11-18T20:48:48.853Z,6.47
2022-11-18T20:51:18.714Z,5.97
2022-11-18T20:53:45.589Z,5.50
2022-11-18T20:56:17.796Z,5.13
2022-11-18T20:58:44.719Z,5.75
2022-11-18T21:01:16.753Z,5.43
2022-11-18T21:03:57.982Z,4.80
2022-11-18T21:06:27.234Z,5.90
2022-11-18T21:09:02.512Z,6.10
2022-11-18T21:11:29.999Z,6.10
2022-11-18T21:14:21.519Z,6.50
2022-11-18T21:16:50.456Z,6.65
2022-11-18T21:19:17.354Z,7.07
2022-11-18T21:21:44.258Z,7.05
2022-11-18T21:24:14.730Z,7.25
2022-11-18T21:26:42.105Z,7.75
2022-11-18T21:29:10.647Z,8.32
2022-11-18T21:31:37.590Z,7.70
2022-11-18T21:34:05.060Z,8.27
2022-11-18T21:36:32.513Z,8.57
2022-11-18T21:39:00.523Z,9.02
2022-11-18T21:41:28.761Z,8.52
2022-11-18T21:44:05.937Z,9.15
2022-11-18T21:46:34.531Z,9.30
2022-11-18T21:49:01.976Z,10.43
2022-11-18T21:51:31.180Z,9.63
2022-11-18T21:53:58.510Z,10.07
2022-11-18T21:56:29.274Z,10.27
2022-11-18T21:58:57.198Z,10.52
2022-11-18T22:01:29.422Z,9.10
2022-11-18T22:04:01.436Z,10.55
2022-11-18T22:06:30.008Z,10.88
2022-11-18T22:08:57.107Z,10.68
2022-11-18T22:11:25.478Z,9.82
2022-11-18T22:13:53.039Z,10.38
2022-11-18T22:16:22.326Z,10.82
2022-11-18T22:18:56.098Z,10.60
2022-11-18T22:21:26.255Z,10.10
2022-11-18T22:23:56.125Z,11.57
2022-11-18T22:26:22.709Z,11.10
2022-11-18T22:31:21.059Z,10.23
2022-11-18T22:33:49.499Z,11.02
2022-11-18T22:36:18.152Z,10.75
2022-11-18T22:38:45.348Z,11.50
2022-11-18T22:41:39.305Z,10.57
2022-11-18T22:44:08.467Z,11.68
2022-11-18T22:46:37.110Z,10.88
2022-11-18T22:49:04.600Z,10.82
2022-11-18T22:51:31.746Z,11.65
2022-11-18T22:54:22.907Z,11.20
2022-11-18T22:56:44.994Z,12.18
2022-11-18T23:01:39.561Z,10.48
2022-11-18T23:04:06.594Z,10.82
2022-11-18T23:06:33.503Z,11.00
2022-11-18T23:09:00.173Z,11.25
2022-11-18T23:11:45.638Z,10.20
2022-11-18T23:14:12.362Z,10.27
2022-11-18T23:16:41.529Z,10.85
2022-11-18T23:19:13.684Z,12.52
2022-11-18T23:21:41.279Z,11.82
2022-11-18T23:24:10.797Z,11.93
2022-11-18T23:26:38.049Z,12.50
2022-11-18T23:29:05.079Z,12.55
2022-11-18T23:31:31.943Z,12.45
2022-11-18T23:33:59.070Z,12.80
2022-11-18T23:36:26.466Z,12.48
2022-11-18T23:38:53.872Z,12.73
2022-11-18T23:41:21.029Z,13.05
2022-11-18T23:43:48.723Z,11.90
2022-11-18T23:46:17.344Z,12.20
2022-11-18T23:48:44.944Z,14.35
2022-11-18T23:51:20.520Z,13.32
2022-11-18T23:53:51.179Z,12.98
2022-11-18T23:56:19.351Z,12.73
2022-11-18T23:58:49.109Z,12.25
